Time;durP1;ratioP1;P1;durP2;ratioP2;P2;SDS_P1;SDS_P2;PMS_P1;PMS_P2;Temp;Humidity;BMP_temperature;BMP_pressure;BME280_temperature;BME280_humidity;BME280_pressure;Samples;Min_cycle;Max_cycle;Signal;HPM_P1;HPM_P2
2023/10/24 00:01:07;;;;;;;4.75;3.45;;;;;;;7.99;54.77;100720.47;4978429;28;20064;-70
2023/10/24 00:03:32;;;;;;;5.95;4.78;;;;;;;8.02;54.85;100719.50;4976175;28;20049;-69
2023/10/24 00:05:58;;;;;;;6.88;3.78;;;;;;;7.95;54.87;100724.03;4979892;28;20108;-68
2023/10/24 00:08:24;;;;;;;6.93;4.40;;;;;;;8.13;54.25;100710.44;4980441;28;20799;-68
2023/10/24 00:10:58;;;;;;;8.05;3.67;;;;;;;8.13;54.42;100707.84;4963576;28;20097;-67
2023/10/24 00:13:24;;;;;;;5.93;2.95;;;;;;;8.09;54.79;100710.59;4975664;28;20046;-68
2023/10/24 00:15:49;;;;;;;7.82;4.18;;;;;;;8.27;54.19;100710.00;4978201;28;20905;-68
2023/10/24 00:18:15;;;;;;;10.65;4.97;;;;;;;8.15;54.37;100706.03;4978256;28;20155;-67
2023/10/24 00:20:40;;;;;;;5.47;2.95;;;;;;;8.26;54.42;100702.25;4974563;28;20602;-68
2023/10/24 00:23:06;;;;;;;7.68;3.38;;;;;;;8.27;54.72;100710.00;4982636;28;20045;-67
2023/10/24 00:25:31;;;;;;;6.47;3.78;;;;;;;8.16;55.04;100696.50;4978839;28;20177;-71
2023/10/24 00:27:57;;;;;;;7.25;3.92;;;;;;;8.15;55.01;100687.81;4987229;28;20065;-67
2023/10/24 00:30:22;;;;;;;8.80;5.00;;;;;;;8.28;54.77;100682.22;4986356;28;20995;-70
2023/10/24 00:32:49;;;;;;;10.98;4.47;;;;;;;7.98;55.67;100679.72;4978973;28;20045;-71
2023/10/24 00:35:16;;;;;;;15.13;4.88;;;;;;;8.14;55.52;100673.09;4976185;28;20028;-65
2023/10/24 00:37:42;;;;;;;12.30;4.55;;;;;;;8.07;55.55;100665.53;4976907;28;20089;-67
2023/10/24 00:40:08;;;;;;;8.27;3.97;;;;;;;8.08;55.63;100659.44;4996187;28;20421;-66
2023/10/24 00:42:33;;;;;;;12.48;5.28;;;;;;;7.93;56.16;100652.97;4985181;28;20038;-67
2023/10/24 00:44:59;;;;;;;6.80;4.25;;;;;;;8.09;55.60;100646.38;4986929;28;20061;-67
2023/10/24 00:47:25;;;;;;;9.55;4.60;;;;;;;7.90;56.63;100637.47;4981472;28;20064;-68
2023/10/24 00:49:52;;;;;;;7.88;4.22;;;;;;;7.94;56.32;100639.09;4980087;28;20572;-68
2023/10/24 00:52:19;;;;;;;7.00;4.40;;;;;;;8.07;55.83;100639.50;4981159;28;20037;-68
2023/10/24 00:54:45;;;;;;;8.93;4.53;;;;;;;7.83;56.65;100630.78;4977665;28;20034;-69
2023/10/24 00:57:12;;;;;;;8.25;4.63;;;;;;;7.92;56.61;100615.69;4982036;28;20038;-68
2023/10/24 00:59:43;;;;;;;8.85;5.20;;;;;;;8.03;56.41;100617.94;4977482;28;20061;-69
2023/10/24 01:02:12;;;;;;;8.77;5.32;;;;;;;8.00;56.21;100610.22;4979220;28;20233;-67
2023/10/24 01:04:39;;;;;;;7.82;5.57;;;;;;;7.94;56.29;100606.09;4976661;28;20334;-69
2023/10/24 01:07:04;;;;;;;10.68;5.25;;;;;;;7.89;56.62;100591.53;4973561;28;20463;-68
2023/10/24 01:09:31;;;;;;;8.77;4.57;;;;;;;7.77;57.04;100578.94;4981734;28;20504;-66
2023/10/24 01:11:57;;;;;;;10.18;5.40;;;;;;;7.79;56.83;100577.97;4978271;28;20508;-67
2023/10/24 01:14:23;;;;;;;9.57;6.03;;;;;;;7.66;57.63;100576.69;4979072;28;20096;-66
2023/10/24 01:16:49;;;;;;;11.07;5.53;;;;;;;7.67;57.24;100563.63;4978693;28;20526;-66
2023/10/24 01:19:14;;;;;;;9.75;5.28;;;;;;;7.82;57.13;100558.81;4982259;28;20038;-65
2023/10/24 01:21:45;;;;;;;9.13;5.50;;;;;;;7.68;57.35;100554.91;4984738;28;20038;-67
2023/10/24 01:24:15;;;;;;;13.55;5.97;;;;;;;7.70;57.52;100553.09;4981237;28;20042;-66
2023/10/24 01:26:42;;;;;;;12.30;6.40;;;;;;;7.81;57.36;100554.53;4976419;28;20725;-65
2023/10/24 01:29:08;;;;;;;17.80;5.80;;;;;;;7.85;57.31;100551.75;4979794;28;20041;-69
2023/10/24 01:31:34;;;;;;;13.38;6.45;;;;;;;7.84;57.36;100559.59;4981965;28;20048;-68
2023/10/24 01:34:00;;;;;;;11.90;6.13;;;;;;;7.76;57.54;100546.00;4985926;28;20030;-68
2023/10/24 01:36:25;;;;;;;13.98;6.15;;;;;;;7.78;57.54;100544.19;4982972;28;20037;-66
2023/10/24 01:38:52;;;;;;;8.55;5.90;;;;;;;7.82;57.17;100540.59;4984558;28;20667;-65
2023/10/24 01:41:17;;;;;;;8.63;6.40;;;;;;;7.83;57.41;100540.56;4990245;28;20040;-65
2023/10/24 01:43:43;;;;;;;7.72;5.25;;;;;;;7.73;57.86;100542.63;4978996;28;20046;-63
2023/10/24 01:46:08;;;;;;;12.25;6.32;;;;;;;7.78;57.67;100544.19;4979656;28;20030;-64
2023/10/24 01:48:34;;;;;;;9.70;5.68;;;;;;;7.69;58.12;100538.41;4981267;28;20462;-63
2023/10/24 01:51:00;;;;;;;7.47;4.82;;;;;;;7.63;58.32;100546.41;4986281;28;20030;-67
2023/10/24 01:53:25;;;;;;;9.00;5.65;;;;;;;7.64;58.39;100542.91;4981978;28;20029;-64
2023/10/24 01:55:51;;;;;;;10.35;5.75;;;;;;;7.57;58.68;100540.56;4986916;28;20037;-64
2023/10/24 01:58:16;;;;;;;9.10;6.20;;;;;;;7.60;58.67;100536.13;4980783;28;20046;-63
2023/10/24 02:00:42;;;;;;;13.10;6.72;;;;;;;7.55;58.90;100527.59;4981412;28;20083;-69
2023/10/24 02:03:07;;;;;;;9.57;6.15;;;;;;;7.67;58.62;100527.22;4979215;28;20151;-71
2023/10/24 02:05:33;;;;;;;11.77;7.10;;;;;;;7.54;59.25;100523.28;4983029;28;20105;-71
2023/10/24 02:08:00;;;;;;;9.93;6.15;;;;;;;7.41;59.87;100508.97;4982571;28;20588;-72
2023/10/24 02:10:25;;;;;;;11.55;6.80;;;;;;;7.47;60.15;100498.38;4985947;28;20026;-71
2023/10/24 02:12:51;;;;;;;11.73;6.40;;;;;;;7.49;60.03;100501.78;4968070;28;20424;-70
2023/10/24 02:15:16;;;;;;;11.55;6.70;;;;;;;7.35;60.88;100496.16;4975099;28;20165;-70
2023/10/24 02:17:42;;;;;;;10.02;6.63;;;;;;;7.38;60.89;100503.84;4985035;28;20053;-71
2023/10/24 02:20:09;;;;;;;13.50;6.25;;;;;;;7.42;60.89;100487.25;4980277;28;20034;-68
2023/10/24 02:22:35;;;;;;;10.90;6.63;;;;;;;7.44;61.03;100488.91;4981122;28;20042;-71
2023/10/24 02:25:00;;;;;;;11.73;7.65;;;;;;;7.38;61.09;100488.25;4975484;28;20072;-68
2023/10/24 02:27:27;;;;;;;15.30;6.47;;;;;;;7.37;61.28;100481.38;4981034;28;20116;-69
2023/10/24 02:29:53;;;;;;;11.15;6.85;;;;;;;7.33;61.58;100485.81;4977434;28;20034;-71
2023/10/24 02:32:19;;;;;;;10.20;6.40;;;;;;;7.33;61.53;100478.88;4979437;28;20026;-68
2023/10/24 02:34:49;;;;;;;13.27;6.63;;;;;;;7.43;61.33;100475.97;4976550;28;20088;-67
2023/10/24 02:37:14;;;;;;;9.73;6.50;;;;;;;7.32;61.71;100461.56;4978050;28;20579;-68
2023/10/24 02:39:40;;;;;;;8.68;6.63;;;;;;;7.22;62.15;100462.78;4982626;28;20052;-65
2023/10/24 02:42:06;;;;;;;13.32;7.07;;;;;;;7.23;62.22;100454.06;4964767;28;20060;-68
2023/10/24 02:44:32;;;;;;;13.95;6.70;;;;;;;7.36;62.19;100453.69;4979133;28;21056;-66
2023/10/24 02:46:57;;;;;;;14.32;7.95;;;;;;;7.33;61.95;100459.81;4980258;28;20066;-67
2023/10/24 02:49:23;;;;;;;12.10;7.78;;;;;;;7.22;62.56;100448.91;4978811;28;20171;-67
2023/10/24 02:51:48;;;;;;;11.30;7.35;;;;;;;7.44;61.95;100441.25;4985304;28;20092;-65
2023/10/24 02:54:14;;;;;;;10.20;7.22;;;;;;;7.44;61.67;100446.47;4977087;28;20058;-65
2023/10/24 02:56:40;;;;;;;11.85;7.28;;;;;;;7.39;62.09;100441.41;4986103;28;20037;-64
2023/10/24 02:59:05;;;;;;;11.80;7.20;;;;;;;7.42;61.79;100435.25;4986984;28;20500;-64
2023/10/24 03:01:31;;;;;;;12.80;6.70;;;;;;;7.27;62.57;100437.50;4985883;28;20457;-66
2023/10/24 03:03:56;;;;;;;13.80;8.20;;;;;;;7.27;62.26;100436.66;4976880;28;20050;-66
2023/10/24 03:06:22;;;;;;;12.35;7.68;;;;;;;7.34;62.25;100427.72;4978932;28;20098;-66
2023/10/24 03:08:49;;;;;;;15.73;7.72;;;;;;;7.38;62.48;100434.53;4980601;28;20061;-65
2023/10/24 03:11:22;;;;;;;15.55;8.10;;;;;;;7.29;62.62;100433.09;4975767;28;20386;-64
2023/10/24 03:13:48;;;;;;;14.00;7.22;;;;;;;7.39;62.37;100422.38;4976332;28;20034;-65
2023/10/24 03:16:13;;;;;;;11.35;7.53;;;;;;;7.47;62.24;100417.78;4985767;28;20400;-66
2023/10/24 03:18:39;;;;;;;14.25;8.32;;;;;;;7.36;62.59;100415.53;4987192;28;20039;-66
2023/10/24 03:21:05;;;;;;;14.82;7.70;;;;;;;7.36;62.67;100406.88;4978170;28;20037;-64
2023/10/24 03:23:30;;;;;;;13.43;7.93;;;;;;;7.33;62.37;100403.50;4979778;28;20044;-64
2023/10/24 03:25:56;;;;;;;13.27;7.97;;;;;;;7.43;62.61;100404.00;4971513;28;20038;-65
2023/10/24 03:28:21;;;;;;;19.63;8.13;;;;;;;7.59;62.31;100408.72;4981401;28;20072;-66
2023/10/24 03:30:48;;;;;;;14.02;8.30;;;;;;;7.50;62.61;100392.50;4967026;28;20515;-65
2023/10/24 03:33:13;;;;;;;13.02;7.55;;;;;;;7.39;62.91;100393.78;4978772;28;20037;-67
2023/10/24 03:35:39;;;;;;;16.02;9.10;;;;;;;7.42;62.94;100391.94;4983469;28;20401;-67
2023/10/24 03:38:05;;;;;;;15.27;9.02;;;;;;;7.46;62.86;100379.66;4974576;28;20112;-65
2023/10/24 03:40:30;;;;;;;15.52;8.32;;;;;;;7.34;63.25;100378.34;4969532;28;20509;-66
2023/10/24 03:42:56;;;;;;;20.48;9.15;;;;;;;7.11;64.15;100374.78;4973548;28;20046;-65
2023/10/24 03:45:21;;;;;;;17.88;8.10;;;;;;;7.36;63.53;100365.28;4978809;28;20030;-65
2023/10/24 03:47:48;;;;;;;13.75;7.88;;;;;;;7.45;63.03;100354.56;4978529;28;20041;-67
2023/10/24 03:50:15;;;;;;;15.40;8.60;;;;;;;7.50;62.96;100352.66;4979704;28;20094;-65
2023/10/24 03:52:40;;;;;;;16.00;8.60;;;;;;;7.55;63.08;100366.34;4981962;28;20628;-64
2023/10/24 03:55:11;;;;;;;13.82;8.10;;;;;;;7.46;63.31;100367.50;4977557;28;20392;-66
2023/10/24 03:57:39;;;;;;;10.63;7.00;;;;;;;7.44;63.18;100365.84;4979924;28;20039;-66
2023/10/24 04:00:09;;;;;;;13.25;8.18;;;;;;;7.48;63.58;100364.84;4975357;28;20640;-64
2023/10/24 04:02:40;;;;;;;17.80;8.30;;;;;;;7.32;63.79;100354.97;4977934;28;20702;-66
2023/10/24 04:05:06;;;;;;;16.77;8.68;;;;;;;7.26;64.11;100355.19;4974497;28;20030;-65
2023/10/24 04:07:32;;;;;;;17.27;8.70;;;;;;;7.22;64.12;100350.16;4979606;28;20122;-64
2023/10/24 04:09:58;;;;;;;12.88;8.13;;;;;;;7.38;64.05;100351.34;4976218;28;20198;-69
2023/10/24 04:12:23;;;;;;;13.32;7.32;;;;;;;7.39;63.95;100350.41;4980830;28;20073;-67
2023/10/24 04:14:49;;;;;;;16.27;8.80;;;;;;;7.29;64.27;100349.91;4978905;28;20030;-69
2023/10/24 04:17:14;;;;;;;15.70;8.88;;;;;;;7.31;64.24;100352.44;4976340;28;20488;-70
2023/10/24 04:19:39;;;;;;;14.45;8.75;;;;;;;7.46;64.02;100346.69;4995715;28;20042;-69
2023/10/24 04:22:05;;;;;;;14.60;8.05;;;;;;;7.47;63.51;100348.41;4975861;28;20030;-67
2023/10/24 04:24:31;;;;;;;15.70;8.30;;;;;;;7.41;64.15;100347.78;4982852;28;20072;-67
2023/10/24 04:26:57;;;;;;;15.25;8.52;;;;;;;7.32;64.48;100344.59;4983448;28;20486;-68
2023/10/24 04:29:22;;;;;;;15.18;8.75;;;;;;;7.47;63.74;100344.97;4978371;28;20037;-67
2023/10/24 04:31:49;;;;;;;16.45;8.32;;;;;;;7.53;64.01;100342.13;4976653;28;20061;-66
2023/10/24 04:34:14;;;;;;;12.00;7.50;;;;;;;7.51;63.70;100342.19;4984562;28;20174;-67
2023/10/24 04:36:40;;;;;;;14.43;8.30;;;;;;;7.51;63.78;100346.53;4979078;28;20283;-68
2023/10/24 04:39:06;;;;;;;17.67;8.70;;;;;;;7.59;63.77;100341.94;4980045;28;21215;-68
2023/10/24 04:41:34;;;;;;;14.05;8.43;;;;;;;7.64;63.46;100334.81;4979188;28;20041;-66
2023/10/24 04:43:59;;;;;;;16.70;9.27;;;;;;;7.67;63.21;100339.09;4976576;28;20820;-70
2023/10/24 04:46:25;;;;;;;12.18;7.53;;;;;;;7.60;63.46;100335.84;4977124;28;20030;-66
2023/10/24 04:48:50;;;;;;;17.70;8.55;;;;;;;7.51;64.08;100324.00;4975520;28;20104;-66
2023/10/24 04:51:15;;;;;;;14.27;8.75;;;;;;;7.57;63.92;100325.53;4976679;28;20040;-66
2023/10/24 04:53:41;;;;;;;11.07;7.82;;;;;;;7.50;64.40;100322.28;4980421;28;20080;-66
2023/10/24 04:56:07;;;;;;;15.45;8.85;;;;;;;7.64;63.80;100314.00;4976225;28;21694;-65
2023/10/24 04:58:32;;;;;;;14.88;9.05;;;;;;;7.57;63.71;100309.94;4976640;28;20046;-66
2023/10/24 05:00:58;;;;;;;15.15;9.93;;;;;;;7.44;64.51;100314.69;4978208;28;20037;-67
2023/10/24 05:03:23;;;;;;;14.45;8.18;;;;;;;7.53;64.06;100300.50;4975656;28;20125;-66
2023/10/24 05:05:49;;;;;;;13.63;9.20;;;;;;;7.61;63.98;100298.53;4981257;28;20455;-66
2023/10/24 05:08:14;;;;;;;14.68;8.80;;;;;;;7.52;64.07;100293.63;4980479;28;20611;-67
2023/10/24 05:10:42;;;;;;;15.35;8.82;;;;;;;7.53;64.52;100284.91;4980554;28;20065;-68
2023/10/24 05:13:07;;;;;;;15.95;9.50;;;;;;;7.58;64.46;100288.25;4975043;28;20135;-66
2023/10/24 05:15:33;;;;;;;13.80;8.35;;;;;;;7.62;64.16;100295.00;4981226;28;21511;-67
2023/10/24 05:17:58;;;;;;;13.40;8.85;;;;;;;7.55;64.73;100298.75;4978000;28;20097;-68
2023/10/24 05:20:25;;;;;;;15.40;8.73;;;;;;;7.49;64.70;100296.34;4987230;28;20068;-67
2023/10/24 05:22:50;;;;;;;15.63;8.80;;;;;;;7.66;64.47;100291.38;4978643;28;20056;-68
2023/10/24 05:25:16;;;;;;;16.75;9.82;;;;;;;7.56;64.70;100287.44;4980607;28;20034;-67
2023/10/24 05:27:42;;;;;;;12.80;8.55;;;;;;;7.40;65.55;100283.66;4981120;28;20052;-67
2023/10/24 05:30:10;;;;;;;13.23;9.30;;;;;;;7.40;65.44;100283.66;4977518;28;20034;-66
2023/10/24 05:32:35;;;;;;;12.90;8.50;;;;;;;7.43;65.27;100279.22;4972588;28;21157;-67
2023/10/24 05:35:01;;;;;;;16.73;10.10;;;;;;;7.64;64.94;100277.59;4981223;28;20034;-69
2023/10/24 05:37:27;;;;;;;13.75;8.23;;;;;;;7.40;65.42;100274.13;4980949;28;20580;-70
2023/10/24 05:39:52;;;;;;;12.38;8.52;;;;;;;7.77;64.22;100267.59;4978659;28;20123;-68
2023/10/24 05:42:20;;;;;;;18.00;9.25;;;;;;;7.71;64.28;100265.19;4984183;28;20038;-69
2023/10/24 05:44:45;;;;;;;12.60;8.57;;;;;;;7.73;64.40;100259.06;4981031;28;20321;-69
2023/10/24 05:47:11;;;;;;;14.48;9.23;;;;;;;7.72;64.47;100248.72;4982490;28;20044;-69
2023/10/24 05:49:37;;;;;;;17.58;10.30;;;;;;;7.80;64.24;100248.41;4982864;28;20103;-68
2023/10/24 05:52:02;;;;;;;17.90;9.43;;;;;;;7.72;64.48;100249.53;4984394;28;20414;-66
2023/10/24 05:54:28;;;;;;;12.07;8.32;;;;;;;7.81;64.61;100247.50;4986188;28;20030;-70
2023/10/24 05:56:53;;;;;;;13.98;8.32;;;;;;;7.81;64.19;100247.50;4985413;28;20065;-68
2023/10/24 05:59:19;;;;;;;14.85;9.32;;;;;;;7.83;64.68;100250.91;4977912;28;20050;-72
2023/10/24 06:01:44;;;;;;;20.02;9.98;;;;;;;7.88;64.44;100249.81;4967331;28;20027;-66
2023/10/24 06:04:09;;;;;;;12.85;8.85;;;;;;;8.00;64.13;100251.06;4979635;28;20200;-66
2023/10/24 06:06:35;;;;;;;17.75;8.80;;;;;;;7.93;64.40;100254.81;4981284;28;20049;-67
2023/10/24 06:09:00;;;;;;;14.52;9.73;;;;;;;7.70;65.07;100255.72;4979371;28;20041;-67
2023/10/24 06:11:26;;;;;;;16.52;9.90;;;;;;;7.88;64.32;100248.97;4976170;28;20034;-67
2023/10/24 06:13:51;;;;;;;11.68;8.52;;;;;;;7.94;64.48;100238.31;4982531;28;20042;-63
2023/10/24 06:16:19;;;;;;;16.25;8.88;;;;;;;7.99;63.99;100236.38;4987801;28;20029;-66
2023/10/24 06:18:45;;;;;;;12.07;8.50;;;;;;;8.01;64.14;100226.75;4981060;28;20489;-64
2023/10/24 06:21:12;;;;;;;12.57;8.88;;;;;;;8.05;64.25;100238.75;4977492;28;20038;-66
2023/10/24 06:23:38;;;;;;;14.18;9.60;;;;;;;7.88;64.76;100233.34;4991946;28;20416;-67
2023/10/24 06:26:10;;;;;;;14.80;8.40;;;;;;;7.87;65.06;100231.63;4977999;28;20096;-67
2023/10/24 06:28:36;;;;;;;14.02;10.00;;;;;;;8.09;64.63;100245.53;4979057;28;20455;-69
2023/10/24 06:31:04;;;;;;;14.00;8.48;;;;;;;8.09;64.43;100229.03;4984952;28;20038;-70
2023/10/24 06:33:30;;;;;;;10.43;7.97;;;;;;;8.22;63.90;100232.84;4978383;28;20092;-68
2023/10/24 06:35:56;;;;;;;11.38;8.40;;;;;;;8.17;64.23;100226.16;4977831;28;20042;-66
2023/10/24 06:38:22;;;;;;;13.52;8.98;;;;;;;8.05;64.89;100230.09;4977426;28;20039;-65
2023/10/24 06:40:48;;;;;;;13.85;8.60;;;;;;;8.26;64.40;100223.19;4980249;28;20041;-68
2023/10/24 06:43:13;;;;;;;14.68;8.65;;;;;;;8.31;63.94;100221.22;4983971;28;20130;-66
2023/10/24 06:45:41;;;;;;;12.45;8.85;;;;;;;8.05;64.97;100230.09;4980697;28;20441;-68
2023/10/24 06:48:11;;;;;;;13.10;8.70;;;;;;;8.17;64.59;100228.75;4975769;28;20046;-67
2023/10/24 06:50:38;;;;;;;13.45;8.88;;;;;;;8.45;63.92;100234.53;4978818;28;20049;-65
2023/10/24 06:53:04;;;;;;;10.60;8.55;;;;;;;8.32;64.17;100228.97;4979038;28;20463;-67
2023/10/24 06:55:29;;;;;;;11.10;8.95;;;;;;;8.39;64.37;100229.56;4983610;28;20425;-66
2023/10/24 06:58:04;;;;;;;13.95;8.73;;;;;;;8.54;63.81;100231.53;4976890;28;20057;-63
2023/10/24 07:00:30;;;;;;;11.13;8.85;;;;;;;8.61;63.69;100239.94;4980392;28;20049;-67
2023/10/24 07:02:56;;;;;;;11.75;8.57;;;;;;;8.68;63.25;100240.53;4979456;28;20045;-66
2023/10/24 07:05:22;;;;;;;13.40;7.80;;;;;;;8.66;63.60;100232.78;5011200;28;20027;-69
2023/10/24 07:07:47;;;;;;;11.55;7.80;;;;;;;8.65;63.67;100235.44;4980402;28;20038;-65
2023/10/24 07:10:13;;;;;;;9.98;8.10;;;;;;;8.87;63.29;100238.03;4979505;28;20057;-67
2023/10/24 07:12:38;;;;;;;10.98;7.88;;;;;;;8.95;63.40;100238.53;4980414;28;20053;-66
2023/10/24 07:15:04;;;;;;;10.45;7.47;;;;;;;9.06;62.79;100235.47;4977374;28;20029;-67
2023/10/24 07:17:30;;;;;;;8.48;7.10;;;;;;;8.93;63.25;100236.00;4978410;28;20200;-66
2023/10/24 07:19:57;;;;;;;10.80;8.35;;;;;;;8.91;63.07;100226.56;4980081;28;20034;-67
2023/10/24 07:22:22;;;;;;;11.20;7.85;;;;;;;9.10;62.85;100226.63;4978692;28;20658;-65
2023/10/24 07:24:48;;;;;;;13.70;9.40;;;;;;;9.14;62.65;100218.59;4985867;28;20065;-66
2023/10/24 07:27:13;;;;;;;12.85;8.93;;;;;;;9.16;62.72;100223.72;4979306;28;20565;-66
2023/10/24 07:29:39;;;;;;;14.65;8.15;;;;;;;9.00;63.21;100225.31;4977184;28;20497;-68
2023/10/24 07:32:05;;;;;;;20.38;8.20;;;;;;;9.09;63.07;100217.09;4976813;28;20089;-64
2023/10/24 07:34:34;;;;;;;10.50;8.75;;;;;;;9.27;62.71;100224.06;4979330;28;20026;-67
2023/10/24 07:37:00;;;;;;;15.27;8.70;;;;;;;9.38;62.43;100216.59;4974434;28;20096;-64
2023/10/24 07:39:26;;;;;;;11.10;8.32;;;;;;;9.22;62.63;100223.44;4980734;28;20117;-65
2023/10/24 07:41:51;;;;;;;10.20;7.65;;;;;;;9.29;62.01;100227.47;4977386;28;21084;-69
2023/10/24 07:44:17;;;;;;;9.82;7.78;;;;;;;9.34;62.25;100237.69;4973932;28;20053;-64
2023/10/24 07:46:42;;;;;;;15.18;8.23;;;;;;;9.42;62.17;100239.97;4975275;28;20073;-65
2023/10/24 07:49:08;;;;;;;11.65;8.55;;;;;;;9.43;62.55;100244.25;4983445;28;20045;-64
2023/10/24 07:51:34;;;;;;;14.70;8.95;;;;;;;9.11;63.26;100244.78;4979759;28;20041;-65
2023/10/24 07:53:59;;;;;;;9.27;7.35;;;;;;;9.54;62.39;100244.59;4975412;28;20042;-64
2023/10/24 07:56:25;;;;;;;15.30;8.20;;;;;;;9.60;61.71;100246.94;4982189;28;20496;-64
2023/10/24 07:58:50;;;;;;;10.05;8.10;;;;;;;9.60;61.73;100236.50;4979279;28;20092;-65
2023/10/24 08:01:18;;;;;;;11.85;7.38;;;;;;;9.64;61.42;100237.22;4975738;28;20033;-65
2023/10/24 08:03:44;;;;;;;11.35;7.97;;;;;;;9.49;61.67;100238.75;4964097;28;20042;-66
2023/10/24 08:06:10;;;;;;;15.73;7.95;;;;;;;9.42;61.88;100235.59;4959794;28;20031;-65
2023/10/24 08:08:35;;;;;;;13.85;7.80;;;;;;;9.56;61.83;100227.13;4973806;28;20849;-64
2023/10/24 08:11:01;;;;;;;10.65;7.63;;;;;;;9.58;61.76;100228.75;4978357;28;20033;-66
2023/10/24 08:13:26;;;;;;;9.90;7.28;;;;;;;9.58;61.74;100233.13;4966284;28;20525;-65
2023/10/24 08:15:52;;;;;;;11.57;8.18;;;;;;;9.46;62.13;100234.53;4960800;28;21057;-66
2023/10/24 08:18:21;;;;;;;10.50;8.02;;;;;;;9.46;62.29;100225.88;4959477;28;20510;-66
2023/10/24 08:20:46;;;;;;;19.05;8.50;;;;;;;9.25;62.87;100231.13;4959365;28;20128;-66
2023/10/24 08:23:12;;;;;;;11.38;8.43;;;;;;;8.99;63.27;100227.06;4956177;28;20636;-65
2023/10/24 08:25:38;;;;;;;12.48;7.97;;;;;;;9.39;62.57;100223.53;4959864;28;20038;-67
2023/10/24 08:28:04;;;;;;;13.38;9.32;;;;;;;9.32;62.40;100222.13;4960652;28;20030;-64
2023/10/24 08:30:31;;;;;;;13.27;8.73;;;;;;;9.45;62.35;100217.19;4960763;28;20429;-66
2023/10/24 08:32:58;;;;;;;9.13;7.75;;;;;;;9.60;61.87;100213.03;4967193;28;20058;-66
2023/10/24 08:35:23;;;;;;;13.63;8.70;;;;;;;9.84;61.39;100213.69;4962288;28;20443;-67
2023/10/24 08:37:49;;;;;;;12.43;7.75;;;;;;;9.92;61.05;100219.38;4966238;28;20180;-66
2023/10/24 08:40:15;;;;;;;10.95;7.43;;;;;;;9.96;60.65;100222.69;4975137;28;20037;-66
2023/10/24 08:42:41;;;;;;;9.98;8.18;;;;;;;9.87;61.25;100218.75;4985308;28;20046;-65
2023/10/24 08:45:08;;;;;;;10.50;8.60;;;;;;;9.83;60.71;100217.19;4975963;28;20108;-65
2023/10/24 08:47:34;;;;;;;11.48;8.00;;;;;;;9.88;60.87;100209.13;4975497;28;20612;-65
2023/10/24 08:50:01;;;;;;;9.13;7.80;;;;;;;9.88;61.35;100211.75;4968590;28;20072;-65
2023/10/24 08:52:28;;;;;;;10.32;7.68;;;;;;;9.93;60.86;100212.41;4963530;28;20096;-65
2023/10/24 08:54:54;;;;;;;9.80;7.25;;;;;;;9.97;61.01;100198.28;5001809;28;20105;-67
2023/10/24 08:57:26;;;;;;;13.07;8.15;;;;;;;9.78;61.06;100211.31;4982633;28;20228;-66
2023/10/24 08:59:55;;;;;;;10.60;7.65;;;;;;;9.90;61.63;100207.31;4986942;28;20066;-64
2023/10/24 09:02:21;;;;;;;15.13;8.15;;;;;;;9.92;60.95;100193.28;4978964;28;20045;-66
2023/10/24 09:04:48;;;;;;;9.70;7.53;;;;;;;9.98;61.12;100199.97;4981078;28;20053;-65
2023/10/24 09:07:13;;;;;;;16.45;7.38;;;;;;;10.16;60.60;100196.44;4975724;28;20096;-65
2023/10/24 09:09:39;;;;;;;15.32;8.80;;;;;;;10.43;60.75;100203.84;4986708;28;20599;-64
2023/10/24 09:12:05;;;;;;;15.98;9.65;;;;;;;10.84;59.92;100204.38;5008079;28;20543;-64
2023/10/24 09:14:31;;;;;;;14.43;8.15;;;;;;;10.97;58.75;100196.75;4983457;28;20023;-67
2023/10/24 09:17:04;;;;;;;12.05;9.20;;;;;;;11.18;58.95;100204.41;4988002;28;22057;-65
2023/10/24 09:19:30;;;;;;;12.90;6.65;;;;;;;10.80;58.21;100209.81;4962535;28;20046;-66
2023/10/24 09:21:59;;;;;;;8.65;6.63;;;;;;;10.91;58.66;100209.31;4992560;28;20038;-65
2023/10/24 09:24:25;;;;;;;10.60;7.20;;;;;;;10.94;58.23;100202.13;4959539;28;20317;-65
2023/10/24 09:26:55;;;;;;;10.85;6.07;;;;;;;10.83;58.39;100201.84;4968483;28;20053;-66
2023/10/24 09:29:24;;;;;;;8.52;6.03;;;;;;;10.17;59.70;100211.22;4960136;28;20039;-67
2023/10/24 09:31:51;;;;;;;11.45;5.95;;;;;;;10.38;59.39;100209.28;4959992;28;20031;-67
2023/10/24 09:34:17;;;;;;;9.30;6.20;;;;;;;10.62;58.88;100201.16;4958459;28;20042;-67
2023/10/24 09:36:44;;;;;;;8.43;6.05;;;;;;;10.62;59.24;100209.84;4959755;28;20085;-65
2023/10/24 09:39:14;;;;;;;6.90;5.60;;;;;;;10.71;58.55;100212.91;4947714;28;20145;-66
2023/10/24 09:41:44;;;;;;;7.28;5.40;;;;;;;10.72;58.69;100222.44;4963143;28;20041;-65
2023/10/24 09:44:10;;;;;;;8.48;5.60;;;;;;;10.70;58.78;100219.06;4963546;28;20498;-66
2023/10/24 09:46:37;;;;;;;10.75;6.00;;;;;;;10.87;58.62;100219.06;4963270;28;20034;-66
2023/10/24 09:49:04;;;;;;;6.93;5.93;;;;;;;10.73;58.50;100224.97;4961338;28;20045;-67
2023/10/24 09:51:37;;;;;;;9.80;5.35;;;;;;;10.89;58.03;100230.28;4957617;28;20038;-66
2023/10/24 09:54:07;;;;;;;7.45;5.70;;;;;;;10.85;57.73;100228.75;4960413;28;20030;-67
2023/10/24 09:56:33;;;;;;;6.07;5.10;;;;;;;10.90;57.68;100226.75;4962482;28;20533;-67
2023/10/24 09:58:59;;;;;;;8.45;5.43;;;;;;;11.11;57.18;100230.03;4962864;28;20045;-66
2023/10/24 10:01:27;;;;;;;11.20;7.50;;;;;;;11.23;56.73;100218.06;4960553;28;20567;-67
2023/10/24 10:03:58;;;;;;;12.48;6.88;;;;;;;11.08;57.60;100211.03;4946366;28;20049;-67
2023/10/24 10:06:29;;;;;;;7.55;4.85;;;;;;;11.33;56.78;100214.03;4957520;28;20041;-67
2023/10/24 10:08:58;;;;;;;9.50;6.57;;;;;;;11.29;56.08;100204.66;4960327;28;20050;-66
2023/10/24 10:11:27;;;;;;;5.38;4.20;;;;;;;11.66;55.67;100186.94;4959429;28;20085;-65
2023/10/24 10:14:31;;;;;;;5.50;4.40;;;;;;;11.88;54.43;100200.56;4958410;28;20074;-66
2023/10/24 10:16:57;;;;;;;4.05;3.67;;;;;;;11.43;54.88;100199.50;4959933;28;20105;-66
2023/10/24 10:19:28;;;;;;;8.85;4.38;;;;;;;11.52;54.53;100197.34;4961782;28;20026;-66
2023/10/24 10:22:23;;;;;;;9.85;4.20;;;;;;;11.39;54.67;100195.38;4960276;28;20031;-66
2023/10/24 10:25:07;;;;;;;5.07;3.15;;;;;;;11.25;55.35;100192.66;4961971;28;20038;-66
2023/10/24 10:27:59;;;;;;;7.88;3.40;;;;;;;11.71;54.44;100198.03;4961696;28;20042;-66
2023/10/24 10:30:48;;;;;;;6.25;3.13;;;;;;;11.44;54.13;100185.53;4955020;28;20184;-66
2023/10/24 10:33:20;;;;;;;5.55;3.53;;;;;;;11.38;54.10;100187.63;4959945;28;20066;-68
2023/10/24 10:35:49;;;;;;;;;;;;;;;11.81;54.61;100187.91;4967992;28;20038;-67
2023/10/24 10:38:39;;;;;;;4.88;3.53;;;;;;;11.78;53.43;100185.47;4959014;28;20013;-68
2023/10/24 10:41:32;;;;;;;8.75;3.03;;;;;;;11.50;54.85;100186.09;4975965;28;20563;-67
2023/10/24 10:44:02;;;;;;;4.05;2.80;;;;;;;11.92;53.39;100180.28;4961126;28;20125;-67
2023/10/24 10:46:29;;;;;;;5.68;3.47;;;;;;;12.14;52.69;100174.66;4958816;28;20117;-67
2023/10/24 10:49:03;;;;;;;3.72;2.58;;;;;;;11.88;53.05;100174.38;4956738;28;20039;-66
2023/10/24 10:51:36;;;;;;;5.90;3.35;;;;;;;11.14;54.36;100177.53;4958321;28;20745;-68
2023/10/24 10:54:17;;;;;;;5.75;3.33;;;;;;;11.78;54.58;100188.09;4973135;28;20757;-67
2023/10/24 10:56:43;;;;;;;3.23;2.63;;;;;;;11.72;53.02;100184.00;4961855;28;20048;-66
2023/10/24 10:59:34;;;;;;;5.22;3.00;;;;;;;11.86;53.81;100184.06;4959257;28;20086;-67
2023/10/24 11:02:36;;;;;;;4.18;3.08;;;;;;;11.73;53.10;100180.47;4962927;28;20093;-68
2023/10/24 11:05:21;;;;;;;;;;;;;;;11.70;53.24;100180.59;4960275;28;20053;-67
2023/10/24 11:07:50;;;;;;;6.13;3.50;;;;;;;11.68;52.93;100169.38;4960019;28;20509;-67
2023/10/24 11:10:16;;;;;;;5.57;3.22;;;;;;;11.42;53.60;100182.16;4961640;28;20572;-66
2023/10/24 11:12:48;;;;;;;4.55;3.28;;;;;;;11.00;54.44;100187.91;4961043;28;20150;-65
2023/10/24 11:15:14;;;;;;;6.45;3.03;;;;;;;10.86;54.90;100186.03;4949133;28;20030;-66
2023/10/24 11:17:40;;;;;;;5.57;3.10;;;;;;;11.18;54.67;100189.53;4960773;28;20049;-66
2023/10/24 11:20:10;;;;;;;7.28;3.78;;;;;;;11.05;54.94;100183.28;4961381;28;20038;-67
2023/10/24 11:22:39;;;;;;;5.18;2.67;;;;;;;10.93;54.94;100179.53;4958543;28;20034;-68
2023/10/24 11:25:16;;;;;;;6.45;3.25;;;;;;;11.08;54.85;100182.25;4957821;28;20149;-68
2023/10/24 11:27:41;;;;;;;4.03;3.55;;;;;;;10.52;55.57;100185.09;4961020;28;20035;-67